Time;durP1;ratioP1;P1;durP2;ratioP2;P2;SDS_P1;SDS_P2;PMS_P1;PMS_P2;Temp;Humidity;BMP_temperature;BMP_pressure;BME280_temperature;BME280_humidity;BME280_pressure;Samples;Min_cycle;Max_cycle;Signal;HPM_P1;HPM_P2
2023/08/21 00:01:05;;;;;;;0.00;0.00;;;;;;;20.56;56.63;101216.84;7363147;19;20047;-59
2023/08/21 00:03:31;;;;;;;0.00;0.00;;;;;;;20.58;56.34;101222.91;7350713;19;20010;-59
2023/08/21 00:05:56;;;;;;;0.00;0.00;;;;;;;20.57;56.27;101221.19;7358809;19;21246;-59
2023/08/21 00:08:21;;;;;;;0.10;0.10;;;;;;;20.55;57.02;101225.75;7357712;19;20034;-59
2023/08/21 00:10:47;;;;;;;0.10;0.10;;;;;;;20.42;57.29;101213.13;7353878;19;20002;-59
2023/08/21 00:13:13;;;;;;;0.00;0.00;;;;;;;20.26;57.41;101180.44;7328985;19;20023;-58
2023/08/21 00:15:39;;;;;;;0.08;0.08;;;;;;;20.47;57.69;101220.84;7324432;19;20015;-58
2023/08/21 00:18:05;;;;;;;0.00;0.00;;;;;;;20.44;57.15;101216.56;7320935;19;20023;-59
2023/08/21 00:20:31;;;;;;;0.10;0.10;;;;;;;20.42;57.74;101215.78;7347179;19;22204;-58
2023/08/21 00:22:56;;;;;;;0.00;0.00;;;;;;;20.39;57.69;101215.97;7346656;19;20010;-58
2023/08/21 00:25:22;;;;;;;0.10;0.10;;;;;;;19.83;57.83;101128.94;7313749;19;20022;-58
2023/08/21 00:27:47;;;;;;;0.10;0.10;;;;;;;20.36;57.97;101216.13;7338060;19;20011;-58
2023/08/21 00:30:14;;;;;;;0.10;0.10;;;;;;;20.22;58.42;101194.81;7348096;19;20456;-58
2023/08/21 00:32:40;;;;;;;0.10;0.10;;;;;;;20.31;58.49;101204.91;7359133;19;20885;-58
2023/08/21 00:35:06;;;;;;;0.05;0.05;;;;;;;20.29;58.47;101200.66;7355332;19;20010;-58
2023/08/21 00:37:32;;;;;;;0.10;0.10;;;;;;;20.25;58.61;101202.59;7354948;19;20011;-57
2023/08/21 00:39:57;;;;;;;0.10;0.10;;;;;;;20.22;58.71;101194.81;7350672;19;20015;-58
2023/08/21 00:42:22;;;;;;;0.10;0.10;;;;;;;20.23;58.00;101207.16;7358048;19;20034;-57
2023/08/21 00:44:48;;;;;;;0.10;0.10;;;;;;;20.16;58.56;101203.94;7365718;19;20026;-58
2023/08/21 00:47:13;;;;;;;0.05;0.05;;;;;;;20.09;58.85;101188.47;7362020;19;19995;-58
2023/08/21 00:49:39;;;;;;;0.10;0.10;;;;;;;20.16;58.78;101193.34;7365323;19;20018;-57
2023/08/21 00:52:08;;;;;;;0.10;0.10;;;;;;;20.16;58.88;101197.78;7369500;19;19998;-58
2023/08/21 00:54:34;;;;;;;0.10;0.10;;;;;;;20.05;58.92;101197.53;7368247;19;20011;-58
2023/08/21 00:57:00;;;;;;;0.10;0.10;;;;;;;20.12;59.13;101198.91;7370446;19;20002;-57
2023/08/21 00:59:26;;;;;;;0.10;0.10;;;;;;;20.10;59.11;101204.28;7369471;19;20373;-58
2023/08/21 01:01:51;;;;;;;0.10;0.10;;;;;;;20.09;59.12;101209.69;7376325;19;20478;-58
2023/08/21 01:04:17;;;;;;;0.10;0.10;;;;;;;20.07;59.39;101214.19;7368250;19;20902;-58
2023/08/21 01:06:42;;;;;;;0.05;0.05;;;;;;;20.02;59.88;101217.13;7370087;19;20365;-57
2023/08/21 01:09:41;;;;;;;0.00;0.00;;;;;;;20.06;58.13;101225.75;7369756;19;20022;-58
2023/08/21 01:12:20;;;;;;;0.00;0.00;;;;;;;20.02;59.91;101208.28;7374021;19;20038;-58
2023/08/21 01:15:00;;;;;;;0.00;0.00;;;;;;;20.02;59.25;101208.28;7372273;19;20007;-57
2023/08/21 01:17:28;;;;;;;0.10;0.10;;;;;;;19.85;59.14;101194.16;7374221;19;20017;-58
2023/08/21 01:19:55;;;;;;;0.08;0.08;;;;;;;19.96;59.87;101205.03;7373943;19;20039;-58
2023/08/21 01:22:20;;;;;;;0.10;0.10;;;;;;;19.93;60.19;101205.22;7373020;19;20019;-58
2023/08/21 01:24:46;;;;;;;0.00;0.00;;;;;;;19.92;59.88;101203.50;7369870;19;20660;-58
2023/08/21 01:27:15;;;;;;;0.00;0.00;;;;;;;19.93;59.72;101199.91;7373312;19;20006;-58
2023/08/21 01:29:41;;;;;;;0.10;0.10;;;;;;;19.90;59.88;101202.72;7373376;19;20018;-58
2023/08/21 01:32:12;;;;;;;0.00;0.00;;;;;;;19.91;59.73;101201.78;7371327;19;20474;-57
2023/08/21 01:34:39;;;;;;;0.05;0.05;;;;;;;19.87;60.18;101200.25;7371558;19;20014;-58
2023/08/21 01:37:06;;;;;;;0.00;0.00;;;;;;;19.85;59.84;101196.81;7374438;19;20005;-57
2023/08/21 01:39:31;;;;;;;;;;;;;;;19.88;57.50;101196.66;7373217;19;20022;-58
2023/08/21 01:41:58;;;;;;;0.10;0.10;;;;;;;19.85;60.21;101210.06;7372471;19;19938;-57
2023/08/21 01:44:24;;;;;;;0.10;0.10;;;;;;;19.74;59.84;101185.94;7371331;19;20006;-58
2023/08/21 01:46:49;;;;;;;0.00;0.00;;;;;;;19.80;60.42;101198.84;7372459;19;20025;-57
2023/08/21 01:49:14;;;;;;;0.00;0.00;;;;;;;19.79;60.60;101198.94;7373883;19;20010;-57
2023/08/21 01:51:40;;;;;;;0.10;0.10;;;;;;;19.65;60.48;101183.75;7369453;19;20070;-58
2023/08/21 01:54:05;;;;;;;0.10;0.10;;;;;;;19.74;60.44;101196.53;7374220;19;20584;-57
2023/08/21 01:56:31;;;;;;;0.00;0.00;;;;;;;19.73;60.52;101192.16;7369629;19;19995;-58
2023/08/21 01:58:56;;;;;;;0.08;0.08;;;;;;;19.73;60.47;101191.31;7369437;19;20021;-58
2023/08/21 02:01:23;;;;;;;0.10;0.10;;;;;;;19.68;61.04;101194.22;7372332;19;20010;-58
2023/08/21 02:03:48;;;;;;;0.10;0.10;;;;;;;19.68;60.53;101188.91;7371313;19;20587;-58
2023/08/21 02:06:14;;;;;;;0.03;0.03;;;;;;;19.67;61.36;101187.22;7367743;19;20014;-58
2023/08/21 02:08:39;;;;;;;0.00;0.00;;;;;;;19.66;60.81;101180.16;7370866;19;20062;-58
2023/08/21 02:11:04;;;;;;;0.00;0.00;;;;;;;19.65;60.92;101179.31;7371398;19;20534;-58
2023/08/21 02:13:30;;;;;;;0.10;0.10;;;;;;;19.63;60.97;101175.06;7370706;19;20011;-58
2023/08/21 02:15:55;;;;;;;0.10;0.10;;;;;;;19.60;61.05;101168.09;7373539;19;20754;-58
2023/08/21 02:18:21;;;;;;;0.05;0.05;;;;;;;19.56;60.88;101173.59;7369537;19;20011;-58
2023/08/21 02:20:47;;;;;;;0.10;0.10;;;;;;;19.56;61.45;101161.22;7374143;19;20445;-57
2023/08/21 02:23:12;;;;;;;0.00;0.00;;;;;;;19.56;61.33;101173.59;7380165;19;20001;-58
2023/08/21 02:25:38;;;;;;;0.00;0.00;;;;;;;19.53;61.33;101160.53;7371781;19;20035;-56
2023/08/21 02:28:04;;;;;;;0.10;0.10;;;;;;;19.52;61.42;101161.50;7369334;19;20021;-58
2023/08/21 02:30:29;;;;;;;0.10;0.10;;;;;;;19.50;61.53;101163.34;7369452;19;20465;-57
2023/08/21 02:32:54;;;;;;;0.10;0.10;;;;;;;19.48;61.66;101154.63;7365974;19;20002;-58
2023/08/21 02:35:20;;;;;;;0.00;0.00;;;;;;;19.47;61.42;101152.94;7370649;19;20006;-57
2023/08/21 02:37:45;;;;;;;0.10;0.10;;;;;;;19.41;62.04;101154.06;7367894;19;20023;-57
2023/08/21 02:40:11;;;;;;;0.00;0.00;;;;;;;19.43;61.47;101168.13;7369063;19;20010;-58
2023/08/21 02:42:36;;;;;;;0.05;0.05;;;;;;;19.39;62.01;101162.09;7371791;19;20010;-55
2023/08/21 02:45:07;;;;;;;0.00;0.00;;;;;;;19.39;61.76;101162.09;7368689;19;20011;-58
2023/08/21 02:47:39;;;;;;;0.00;0.00;;;;;;;19.38;62.03;101168.34;7371083;19;20044;-58
2023/08/21 02:50:06;;;;;;;0.00;0.00;;;;;;;19.39;62.07;101166.56;7369722;19;20007;-57
2023/08/21 02:52:33;;;;;;;0.10;0.10;;;;;;;19.36;61.67;101169.34;7366282;19;20044;-57
2023/08/21 02:54:58;;;;;;;0.10;0.10;;;;;;;19.24;61.97;101152.31;7369424;19;20070;-58
2023/08/21 02:57:27;;;;;;;0.00;0.00;;;;;;;19.36;61.70;101170.25;7371328;19;20593;-57
2023/08/21 02:59:53;;;;;;;0.08;0.08;;;;;;;19.34;61.99;101168.59;7365954;19;20062;-58
2023/08/21 03:02:19;;;;;;;0.00;0.00;;;;;;;19.33;62.36;101158.94;7367907;19;20019;-58
2023/08/21 03:04:44;;;;;;;0.00;0.00;;;;;;;19.22;62.09;101137.47;7365268;19;20529;-56
2023/08/21 03:07:10;;;;;;;0.00;0.00;;;;;;;19.26;62.35;101152.22;7370371;19;20014;-58
2023/08/21 03:09:39;;;;;;;0.10;0.10;;;;;;;19.32;61.64;101150.13;7373536;19;20030;-57
2023/08/21 03:12:06;;;;;;;0.00;0.00;;;;;;;19.05;62.53;101103.88;7371277;19;20015;-58
2023/08/21 03:14:31;;;;;;;0.10;0.10;;;;;;;19.28;62.39;101143.28;7365135;19;20031;-58
2023/08/21 03:16:57;;;;;;;0.00;0.00;;;;;;;19.25;62.38;101143.44;7368890;19;20014;-56
2023/08/21 03:19:22;;;;;;;0.10;0.10;;;;;;;19.24;63.01;101133.78;7347533;19;20042;-58
2023/08/21 03:21:47;;;;;;;0.00;0.00;;;;;;;19.25;62.87;101138.13;7361739;19;20002;-57
2023/08/21 03:24:13;;;;;;;0.00;0.00;;;;;;;19.23;62.44;101140.00;7366973;19;20030;-57
2023/08/21 03:26:38;;;;;;;0.10;0.10;;;;;;;19.23;62.65;101142.66;7369867;19;20006;-57
2023/08/21 03:29:03;;;;;;;0.08;0.08;;;;;;;19.18;62.99;101123.50;7367712;19;20018;-58
2023/08/21 03:31:30;;;;;;;0.10;0.10;;;;;;;19.21;62.53;101128.66;7367791;19;20032;-56
2023/08/21 03:33:55;;;;;;;0.08;0.08;;;;;;;19.21;62.88;101130.44;7367787;19;20021;-58
2023/08/21 03:36:22;;;;;;;0.10;0.10;;;;;;;19.19;62.87;101127.88;7370354;19;20010;-57
2023/08/21 03:38:48;;;;;;;0.10;0.10;;;;;;;19.19;63.07;101130.50;7368645;19;20646;-57
2023/08/21 03:41:13;;;;;;;0.05;0.05;;;;;;;19.18;62.99;101128.81;7369593;19;20017;-58
2023/08/21 03:43:39;;;;;;;0.00;0.00;;;;;;;19.17;63.18;101135.03;7365880;19;20017;-58
2023/08/21 03:46:04;;;;;;;0.10;0.10;;;;;;;19.16;62.79;101130.69;7367531;19;20013;-58
2023/08/21 03:48:29;;;;;;;0.10;0.10;;;;;;;19.15;62.72;101121.88;7368416;19;20401;-56
2023/08/21 03:50:55;;;;;;;0.00;0.00;;;;;;;19.16;62.72;101128.03;7371648;19;20497;-58
2023/08/21 03:53:20;;;;;;;0.10;0.10;;;;;;;19.14;63.18;101124.59;7368031;19;20011;-58
2023/08/21 03:55:46;;;;;;;0.00;0.00;;;;;;;19.15;62.86;101131.59;7367069;19;20023;-58
2023/08/21 03:58:12;;;;;;;0.00;0.00;;;;;;;19.13;63.07;101128.19;7367418;19;20010;-58
2023/08/21 04:00:37;;;;;;;0.10;0.10;;;;;;;19.12;63.19;101132.63;7366546;19;20023;-58
2023/08/21 04:03:03;;;;;;;0.00;0.00;;;;;;;19.11;63.00;101125.63;7369921;19;20022;-58
2023/08/21 04:05:28;;;;;;;0.00;0.00;;;;;;;19.11;63.32;101137.97;7363885;19;20011;-58
2023/08/21 04:07:54;;;;;;;0.10;0.10;;;;;;;19.10;63.45;101131.84;7370034;19;20015;-58
2023/08/21 04:10:19;;;;;;;0.10;0.10;;;;;;;19.10;63.14;101146.88;7369371;19;20013;-58
2023/08/21 04:12:45;;;;;;;0.10;0.10;;;;;;;19.08;63.55;101140.81;7366591;19;20033;-58
2023/08/21 04:15:10;;;;;;;0.10;0.10;;;;;;;19.09;63.59;101131.91;7365794;19;20029;-56
2023/08/21 04:17:35;;;;;;;0.00;0.00;;;;;;;19.07;63.39;101128.50;7365420;19;20014;-59
2023/08/21 04:20:01;;;;;;;0.00;0.00;;;;;;;19.10;63.67;101123.03;7367423;19;20014;-58
2023/08/21 04:22:26;;;;;;;0.00;0.00;;;;;;;19.05;63.35;101111.84;7368904;19;20010;-58
2023/08/21 04:24:52;;;;;;;0.10;0.10;;;;;;;19.10;64.02;101115.09;7372061;19;20022;-58
2023/08/21 04:27:17;;;;;;;0.00;0.00;;;;;;;19.09;63.32;101118.69;7366352;19;20041;-56
2023/08/21 04:29:43;;;;;;;0.08;0.08;;;;;;;19.09;63.65;101126.63;7374002;19;20047;-58
2023/08/21 04:32:08;;;;;;;0.03;0.03;;;;;;;19.09;64.00;101121.34;7374135;19;20009;-58
2023/08/21 04:34:33;;;;;;;0.10;0.10;;;;;;;19.10;63.72;101123.03;7371282;19;20007;-58
2023/08/21 04:36:59;;;;;;;0.00;0.00;;;;;;;19.11;63.64;101124.75;7375218;19;20673;-56
2023/08/21 04:39:25;;;;;;;0.00;0.00;;;;;;;19.12;64.00;101119.41;7373599;19;20042;-58
2023/08/21 04:41:51;;;;;;;0.00;0.00;;;;;;;19.16;64.30;101117.47;7371137;19;20021;-58
2023/08/21 04:44:17;;;;;;;0.10;0.10;;;;;;;19.18;63.92;101120.88;7373230;19;20014;-57
2023/08/21 04:46:42;;;;;;;0.00;0.00;;;;;;;19.22;63.56;101113.63;7374793;19;20006;-57
2023/08/21 04:49:08;;;;;;;0.10;0.10;;;;;;;19.24;64.26;101109.94;7374738;19;20010;-59
2023/08/21 04:51:34;;;;;;;0.10;0.10;;;;;;;19.25;64.25;101111.66;7373312;19;20103;-58
2023/08/21 04:54:00;;;;;;;0.10;0.10;;;;;;;19.27;64.70;101115.09;7371889;19;20466;-58
2023/08/21 04:56:26;;;;;;;0.10;0.10;;;;;;;19.20;64.12;101097.78;7373383;19;20044;-58
2023/08/21 04:58:52;;;;;;;0.00;0.00;;;;;;;19.33;64.72;101105.97;7371772;19;20403;-58
2023/08/21 05:01:17;;;;;;;0.00;0.00;;;;;;;19.33;64.64;101109.47;7367495;19;20046;-58
2023/08/21 05:03:43;;;;;;;0.10;0.10;;;;;;;19.37;64.66;101104.88;7375261;19;20014;-58
2023/08/21 05:06:08;;;;;;;0.00;0.00;;;;;;;19.40;64.70;101094.97;7370101;19;20734;-57
2023/08/21 05:08:34;;;;;;;0.10;0.10;;;;;;;19.43;64.51;101105.41;7374521;19;20020;-57
2023/08/21 05:11:00;;;;;;;0.10;0.10;;;;;;;19.45;64.84;101092.91;7372975;19;20003;-57
2023/08/21 05:13:26;;;;;;;0.00;0.00;;;;;;;19.49;64.55;101095.41;7374422;19;20025;-58
2023/08/21 05:15:54;;;;;;;0.10;0.10;;;;;;;19.53;64.28;101105.78;7380375;19;20003;-57
2023/08/21 05:18:20;;;;;;;0.10;0.10;;;;;;;19.57;64.07;101103.81;7371792;19;20014;-58
2023/08/21 05:20:46;;;;;;;0.10;0.10;;;;;;;19.58;63.79;101098.44;7369505;19;20003;-57
2023/08/21 05:23:12;;;;;;;0.00;0.00;;;;;;;19.62;64.08;101099.16;7373355;19;20604;-55
2023/08/21 05:25:38;;;;;;;0.10;0.10;;;;;;;19.65;63.87;101098.97;7367278;19;20022;-58
2023/08/21 05:28:04;;;;;;;0.10;0.10;;;;;;;19.68;63.97;101096.19;7375174;19;20789;-58
2023/08/21 05:30:30;;;;;;;0.10;0.10;;;;;;;19.72;64.11;101089.78;7365213;19;20076;-58
2023/08/21 05:32:55;;;;;;;0.00;0.00;;;;;;;19.74;64.38;101090.53;7370022;19;20021;-58
2023/08/21 05:35:21;;;;;;;0.10;0.10;;;;;;;19.76;64.37;101086.00;7376382;19;20079;-58
2023/08/21 05:37:46;;;;;;;0.03;0.03;;;;;;;19.79;63.99;101080.53;7373326;19;20108;-57
2023/08/21 05:40:12;;;;;;;0.10;0.10;;;;;;;19.77;63.51;101070.94;7374830;19;20546;-59
2023/08/21 05:42:38;;;;;;;0.05;0.05;;;;;;;19.85;64.13;101096.09;7371054;19;20074;-58
2023/08/21 05:45:04;;;;;;;0.10;0.10;;;;;;;19.84;63.57;101089.09;7373382;19;20085;-58
2023/08/21 05:47:29;;;;;;;0.00;0.00;;;;;;;19.88;63.53;101093.28;7371795;19;20007;-58
2023/08/21 05:49:55;;;;;;;0.10;0.10;;;;;;;19.90;63.51;101098.50;7368551;19;20010;-58
2023/08/21 05:52:22;;;;;;;0.10;0.10;;;;;;;19.92;63.45;101086.00;7372458;19;20011;-58
2023/08/21 05:54:47;;;;;;;;;;;;;;;19.98;61.82;101100.72;7369580;19;20066;-58
2023/08/21 05:57:13;;;;;;;0.00;0.00;;;;;;;19.91;63.00;101097.53;7373997;19;20312;-56
2023/08/21 05:59:46;;;;;;;0.10;0.10;;;;;;;19.98;62.83;101100.72;7367229;19;20015;-58
2023/08/21 06:02:13;;;;;;;0.10;0.10;;;;;;;19.90;63.39;101083.44;7372615;19;20738;-58
2023/08/21 06:04:43;;;;;;;0.10;0.10;;;;;;;20.02;62.89;101110.19;7372864;19;20473;-58
2023/08/21 06:07:08;;;;;;;0.10;0.10;;;;;;;19.99;63.68;101107.75;7370101;19;20014;-58
2023/08/21 06:09:35;;;;;;;0.00;0.00;;;;;;;20.01;63.64;101101.41;7372080;19;20366;-58
2023/08/21 06:12:01;;;;;;;0.10;0.10;;;;;;;20.04;62.99;101106.53;7372556;19;20007;-58
2023/08/21 06:14:30;;;;;;;0.08;0.08;;;;;;;20.06;63.51;101112.59;7367918;19;20007;-58
2023/08/21 06:17:01;;;;;;;0.00;0.00;;;;;;;20.10;63.29;101110.66;7374848;19;20017;-57
2023/08/21 06:19:27;;;;;;;0.10;0.10;;;;;;;20.11;63.18;101110.53;7375199;19;20037;-54
2023/08/21 06:21:52;;;;;;;0.00;0.00;;;;;;;20.13;63.03;101106.03;7370862;19;20010;-57
2023/08/21 06:24:18;;;;;;;0.05;0.05;;;;;;;20.13;63.27;101103.38;7368424;19;20042;-58
2023/08/21 06:26:43;;;;;;;0.00;0.00;;;;;;;20.19;63.39;101110.13;7373836;19;20002;-58
2023/08/21 06:29:09;;;;;;;0.10;0.10;;;;;;;20.23;63.38;101122.28;7368049;19;20018;-58
2023/08/21 06:31:34;;;;;;;0.00;0.00;;;;;;;20.26;63.11;101119.44;7371142;19;20010;-58
2023/08/21 06:34:00;;;;;;;0.03;0.03;;;;;;;20.32;62.63;101142.97;7372558;19;20018;-57
2023/08/21 06:36:25;;;;;;;0.00;0.00;;;;;;;20.35;63.15;101110.13;7375579;19;20545;-58
2023/08/21 06:38:50;;;;;;;0.10;0.10;;;;;;;20.39;62.62;101117.81;7370936;19;20018;-58
2023/08/21 06:41:16;;;;;;;0.10;0.10;;;;;;;20.42;62.82;101120.28;7371723;19;20014;-57
2023/08/21 06:43:41;;;;;;;0.10;0.10;;;;;;;20.47;63.16;101112.09;7367111;19;20042;-58
2023/08/21 06:46:07;;;;;;;0.10;0.10;;;;;;;20.52;62.57;101122.44;7366745;19;20683;-58
2023/08/21 06:48:33;;;;;;;0.10;0.10;;;;;;;20.54;62.49;101115.25;7370705;19;20026;-58
2023/08/21 06:50:59;;;;;;;0.10;0.10;;;;;;;20.56;62.79;101108.06;7368860;19;20007;-58
2023/08/21 06:53:24;;;;;;;0.10;0.10;;;;;;;20.60;62.48;101121.06;7369310;19;20015;-58
2023/08/21 06:55:50;;;;;;;0.10;0.10;;;;;;;20.61;62.47;101116.59;7369141;19;20027;-58
2023/08/21 06:58:15;;;;;;;0.00;0.00;;;;;;;20.63;62.20;101120.00;7369288;19;20030;-57
2023/08/21 07:00:40;;;;;;;0.10;0.10;;;;;;;20.54;62.17;101115.25;7366487;19;20451;-57
2023/08/21 07:03:09;;;;;;;0.00;0.00;;;;;;;20.63;61.95;101142.13;7370502;19;20007;-57
2023/08/21 07:05:34;;;;;;;0.03;0.03;;;;;;;20.66;62.05;101135.78;7371987;19;20007;-58
2023/08/21 07:08:00;;;;;;;0.08;0.08;;;;;;;20.64;62.12;101132.38;7379487;19;20037;-58
2023/08/21 07:10:25;;;;;;;0.10;0.10;;;;;;;20.65;61.60;101147.34;7373821;19;20028;-57
2023/08/21 07:12:51;;;;;;;0.03;0.03;;;;;;;20.66;62.43;101135.78;7363331;19;20016;-58
2023/08/21 07:15:16;;;;;;;0.10;0.10;;;;;;;20.66;62.47;101141.06;7370191;19;20120;-57
2023/08/21 07:17:42;;;;;;;0.00;0.00;;;;;;;20.66;62.16;101146.38;7366257;19;20489;-58
2023/08/21 07:20:07;;;;;;;0.00;0.00;;;;;;;20.63;62.05;101146.53;7364092;19;20007;-58
2023/08/21 07:22:33;;;;;;;0.10;0.10;;;;;;;20.67;62.10;101153.41;7372996;19;20038;-57
2023/08/21 07:25:00;;;;;;;0.08;0.08;;;;;;;20.66;62.65;101146.38;7369843;19;20033;-57
2023/08/21 07:27:26;;;;;;;0.10;0.10;;;;;;;20.69;62.61;101140.91;7370548;19;20022;-57
2023/08/21 07:29:51;;;;;;;0.10;0.10;;;;;;;20.71;62.32;101165.56;7363606;19;20030;-57
2023/08/21 07:32:17;;;;;;;0.10;0.10;;;;;;;20.71;61.70;101149.63;7368222;19;20010;-58
2023/08/21 07:34:42;;;;;;;0.10;0.10;;;;;;;20.76;62.34;101152.88;7365348;19;20292;-58
2023/08/21 07:37:09;;;;;;;0.10;0.10;;;;;;;20.78;62.42;101150.97;7365645;19;20006;-58
2023/08/21 07:39:34;;;;;;;0.10;0.10;;;;;;;20.81;62.15;101150.81;7370917;19;20010;-57
2023/08/21 07:42:00;;;;;;;0.10;0.10;;;;;;;20.84;62.23;101161.25;7362818;19;20523;-58
2023/08/21 07:44:26;;;;;;;0.00;0.00;;;;;;;20.86;62.45;101146.09;7369872;19;20052;-57
2023/08/21 07:46:51;;;;;;;0.10;0.10;;;;;;;20.89;61.97;101148.56;7368255;19;20050;-58
2023/08/21 07:49:17;;;;;;;0.03;0.03;;;;;;;20.93;61.83;101150.09;7364882;19;20003;-59
2023/08/21 07:51:42;;;;;;;0.00;0.00;;;;;;;20.99;61.17;101144.44;7365225;19;20045;-58
2023/08/21 07:54:08;;;;;;;0.00;0.00;;;;;;;21.03;60.85;101149.53;7368681;19;20086;-58
2023/08/21 07:56:35;;;;;;;0.00;0.00;;;;;;;21.06;60.35;101146.72;7361731;19;20010;-58
2023/08/21 07:59:01;;;;;;;;;;;;;;;21.12;60.39;101149.00;7366787;19;20039;-58
2023/08/21 08:01:26;;;;;;;0.00;0.00;;;;;;;20.97;61.00;101127.72;7372232;19;19919;-57
2023/08/21 08:03:52;;;;;;;0.10;0.10;;;;;;;21.09;61.00;101157.16;7374547;19;20020;-58
2023/08/21 08:06:18;;;;;;;0.10;0.10;;;;;;;21.12;60.31;101160.47;7371024;19;20426;-57
2023/08/21 08:08:44;;;;;;;0.10;0.10;;;;;;;21.11;60.39;101150.81;7374041;19;20034;-58
2023/08/21 08:11:09;;;;;;;0.00;0.00;;;;;;;21.14;60.07;101147.97;7375080;19;20011;-57
2023/08/21 08:13:34;;;;;;;0.10;0.10;;;;;;;21.18;59.44;101148.63;7369086;19;20509;-57
2023/08/21 08:16:00;;;;;;;0.10;0.10;;;;;;;21.19;59.51;101134.41;7378546;19;20573;-58
2023/08/21 08:18:26;;;;;;;0.10;0.10;;;;;;;21.23;59.24;101135.91;7373827;19;20334;-58
2023/08/21 08:20:52;;;;;;;0.10;0.10;;;;;;;21.24;59.52;101137.66;7373895;19;20019;-57
2023/08/21 08:23:19;;;;;;;0.10;0.10;;;;;;;21.30;58.80;101131.13;7374784;19;20010;-58
2023/08/21 08:25:44;;;;;;;0.10;0.10;;;;;;;21.31;58.83;101144.31;7374160;19;20137;-58
2023/08/21 08:28:09;;;;;;;0.10;0.10;;;;;;;21.33;58.71;101121.16;7380429;19;20002;-58
2023/08/21 08:30:35;;;;;;;0.10;0.10;;;;;;;21.11;59.08;101104.81;7373962;19;20511;-58
2023/08/21 08:33:00;;;;;;;0.10;0.10;;;;;;;21.41;59.44;101134.84;7373704;19;20026;-58
2023/08/21 08:35:26;;;;;;;0.10;0.10;;;;;;;21.48;58.48;101130.84;7375365;19;20062;-58
2023/08/21 08:37:51;;;;;;;0.10;0.10;;;;;;;21.54;58.15;101140.25;7373054;19;20025;-58
2023/08/21 08:40:17;;;;;;;0.10;0.10;;;;;;;21.50;58.75;101123.66;7363285;19;20007;-59
2023/08/21 08:42:43;;;;;;;0.10;0.10;;;;;;;21.63;57.10;101133.53;7355765;19;20022;-56
2023/08/21 08:45:08;;;;;;;0.10;0.10;;;;;;;21.68;57.10;101147.38;7372186;19;20792;-58
2023/08/21 08:47:35;;;;;;;0.03;0.03;;;;;;;21.69;56.70;101122.50;7366919;19;20045;-58
2023/08/21 08:50:05;;;;;;;0.10;0.10;;;;;;;21.74;57.48;101131.03;7372415;19;20336;-57
2023/08/21 08:52:35;;;;;;;0.10;0.10;;;;;;;21.79;56.72;101134.28;7374814;19;20010;-57
2023/08/21 08:55:02;;;;;;;0.10;0.10;;;;;;;21.81;56.44;101121.75;7374665;19;20010;-58
2023/08/21 08:57:28;;;;;;;0.10;0.10;;;;;;;21.88;56.22;101107.09;7378155;19;20066;-57
2023/08/21 08:59:53;;;;;;;0.10;0.10;;;;;;;22.05;55.68;101134.41;7379861;19;20078;-56
2023/08/21 09:02:18;;;;;;;0.10;0.10;;;;;;;22.19;55.92;101132.63;7372440;19;20010;-58
2023/08/21 09:04:44;;;;;;;0.10;0.10;;;;;;;22.35;55.77;101132.47;7376645;19;20369;-58
2023/08/21 09:07:10;;;;;;;0.10;0.10;;;;;;;22.52;54.58;101118.94;7370415;19;20342;-57
2023/08/21 09:09:47;;;;;;;0.10;0.10;;;;;;;22.76;55.18;101120.94;7373118;19;20014;-58
2023/08/21 09:12:14;;;;;;;0.10;0.10;;;;;;;22.91;52.71;101114.59;7372192;19;21995;-58
2023/08/21 09:14:40;;;;;;;0.00;0.00;;;;;;;23.04;52.80;101104.81;7379588;19;20015;-58
2023/08/21 09:17:07;;;;;;;0.10;0.10;;;;;;;23.15;51.54;101116.53;7373273;19;20007;-58
2023/08/21 09:19:32;;;;;;;0.10;0.10;;;;;;;23.28;51.51;101106.75;7371233;19;20003;-58
2023/08/21 09:21:58;;;;;;;0.10;0.10;;;;;;;23.33;51.69;101104.63;7374010;19;20014;-58
2023/08/21 09:24:23;;;;;;;0.10;0.10;;;;;;;23.44;51.76;101109.19;7342801;19;20010;-58
2023/08/21 09:26:50;;;;;;;0.10;0.10;;;;;;;23.61;51.55;101121.31;7369221;19;20015;-58
2023/08/21 09:29:15;;;;;;;0.10;0.10;;;;;;;23.72;52.07;101102.78;7366354;19;20272;-59
2023/08/21 09:31:43;;;;;;;0.10;0.10;;;;;;;23.92;49.92;101112.84;7365852;19;21531;-59
2023/08/21 09:34:09;;;;;;;0.10;0.10;;;;;;;24.04;50.16;101098.66;7364496;19;20013;-58
2023/08/21 09:36:35;;;;;;;0.08;0.08;;;;;;;24.30;48.39;101101.22;7367312;19;20014;-59
2023/08/21 09:39:03;;;;;;;0.10;0.10;;;;;;;24.48;48.49;101110.56;7367697;19;20494;-58
2023/08/21 09:41:28;;;;;;;0.10;0.10;;;;;;;24.70;47.42;101104.47;7363806;19;20022;-58
2023/08/21 09:43:59;;;;;;;0.10;0.10;;;;;;;24.84;47.80;101079.38;7368809;19;20019;-58
2023/08/21 09:46:25;;;;;;;0.10;0.10;;;;;;;25.12;45.37;101114.69;7363560;19;20022;-58
2023/08/21 09:48:54;;;;;;;0.10;0.10;;;;;;;25.29;45.84;101107.06;7366201;19;20010;-58
2023/08/21 09:51:20;;;;;;;0.10;0.10;;;;;;;25.42;44.79;101100.75;7369577;19;20015;-58
2023/08/21 09:53:48;;;;;;;0.10;0.10;;;;;;;25.61;45.22;101085.81;7369043;19;20010;-58
2023/08/21 09:56:14;;;;;;;0.10;0.10;;;;;;;25.71;44.53;101096.63;7370402;19;20434;-59
2023/08/21 09:58:40;;;;;;;0.10;0.10;;;;;;;25.95;43.80;101104.50;7366400;19;20495;-57
2023/08/21 10:01:13;;;;;;;0.10;0.10;;;;;;;26.16;43.16;101112.66;7370786;19;20010;-58
2023/08/21 10:03:44;;;;;;;0.00;0.00;;;;;;;26.32;42.26;101097.00;7369409;19;20022;-59
2023/08/21 10:06:11;;;;;;;0.10;0.10;;;;;;;26.49;42.68;101102.81;7368462;19;20046;-58
2023/08/21 10:08:40;;;;;;;0.03;0.03;;;;;;;26.64;41.94;101096.19;7369131;19;20078;-58
2023/08/21 10:11:08;;;;;;;0.00;0.00;;;;;;;26.88;41.71;101085.22;7377098;19;20010;-58
2023/08/21 10:13:34;;;;;;;0.00;0.00;;;;;;;27.03;40.49;101100.00;7363632;19;20025;-57
2023/08/21 10:16:00;;;;;;;0.10;0.10;;;;;;;27.11;40.10;101097.50;7359992;19;20010;-58
2023/08/21 10:18:36;;;;;;;0.10;0.10;;;;;;;27.37;41.42;101094.41;7368655;19;20020;-58
2023/08/21 10:21:25;;;;;;;0.10;0.10;;;;;;;27.45;41.41;101105.31;7368445;19;20002;-58
2023/08/21 10:23:54;;;;;;;0.10;0.10;;;;;;;27.60;39.98;101095.94;7367353;19;20093;-58
2023/08/21 10:26:21;;;;;;;0.10;0.10;;;;;;;27.77;39.34;101090.94;7365680;19;20908;-58
2023/08/21 10:28:53;;;;;;;0.10;0.10;;;;;;;28.01;39.11;101098.63;7369410;19;20010;-58
2023/08/21 10:31:36;;;;;;;0.10;0.10;;;;;;;28.17;39.57;101091.72;7365573;19;20081;-58
2023/08/21 10:34:19;;;;;;;0.10;0.10;;;;;;;28.30;39.05;101087.94;7350867;19;20109;-57
2023/08/21 10:36:45;;;;;;;0.00;0.00;;;;;;;28.32;37.00;101120.88;7367409;19;20675;-58
2023/08/21 10:39:18;;;;;;;0.10;0.10;;;;;;;28.31;37.20;101078.88;7372002;19;20006;-58
2023/08/21 10:42:06;;;;;;;0.00;0.00;;;;;;;28.40;39.26;101084.28;7370387;19;20038;-58
2023/08/21 10:44:36;;;;;;;0.00;0.00;;;;;;;28.44;37.84;101101.00;7369861;19;20470;-57
2023/08/21 10:47:32;;;;;;;0.00;0.00;;;;;;;28.47;38.43;101105.22;7374818;19;20006;-58
2023/08/21 10:50:03;;;;;;;0.00;0.00;;;;;;;28.35;35.56;101091.09;7377482;19;20011;-58
2023/08/21 10:52:37;;;;;;;0.00;0.00;;;;;;;28.28;36.92;101073.78;7371423;19;20038;-58
2023/08/21 10:55:06;;;;;;;0.00;0.00;;;;;;;28.10;37.38;101074.47;7370051;19;20030;-58
2023/08/21 10:57:33;;;;;;;0.10;0.10;;;;;;;28.19;36.33;101081.72;7372562;19;20413;-58
2023/08/21 11:00:08;;;;;;;0.10;0.10;;;;;;;28.23;36.34;101066.16;7371028;19;20727;-58
2023/08/21 11:02:33;;;;;;;0.05;0.05;;;;;;;28.21;36.54;101078.03;7370810;19;20077;-58
2023/08/21 11:05:00;;;;;;;0.10;0.10;;;;;;;28.26;37.09;101073.94;7364292;19;20019;-57
2023/08/21 11:07:26;;;;;;;0.10;0.10;;;;;;;28.39;37.04;101060.28;7369895;19;20003;-57
2023/08/21 11:09:52;;;;;;;0.00;0.00;;;;;;;28.44;36.83;101049.94;7372345;19;20010;-58
2023/08/21 11:12:20;;;;;;;0.10;0.10;;;;;;;28.57;36.93;101063.91;7372925;19;20018;-57
2023/08/21 11:14:46;;;;;;;0.10;0.10;;;;;;;28.58;37.43;101070.13;7376098;19;20110;-58
2023/08/21 11:17:12;;;;;;;0.00;0.00;;;;;;;28.67;36.32;101064.75;7367589;19;20034;-58
2023/08/21 11:19:39;;;;;;;0.08;0.08;;;;;;;28.80;35.60;101064.47;7371244;19;20018;-58
2023/08/21 11:22:08;;;;;;;0.10;0.10;;;;;;;28.85;35.00;101047.91;7369836;19;20014;-58
2023/08/21 11:24:47;;;;;;;0.00;0.00;;;;;;;28.92;37.01;101051.72;7371969;19;20056;-58